sensor_id;sensor_type;location;lat;lon;timestamp;P1;durP1;ratioP1;P2;durP2;ratioP2
73276;SDS011;61501;43.316;5.372;2023-03-14T00:00:45;28.88;;;9.93;;
73276;SDS011;61501;43.316;5.372;2023-03-14T00:03:10;24.80;;;8.70;;
73276;SDS011;61501;43.316;5.372;2023-03-14T00:05:36;23.80;;;6.57;;
73276;SDS011;61501;43.316;5.372;2023-03-14T00:08:02;17.90;;;5.82;;
73276;SDS011;61501;43.316;5.372;2023-03-14T00:10:27;11.73;;;2.95;;
73276;SDS011;61501;43.316;5.372;2023-03-14T00:12:53;9.55;;;3.08;;
73276;SDS011;61501;43.316;5.372;2023-03-14T00:15:19;8.40;;;3.35;;
73276;SDS011;61501;43.316;5.372;2023-03-14T00:17:44;6.47;;;2.35;;
73276;SDS011;61501;43.316;5.372;2023-03-14T00:20:10;8.50;;;2.72;;
73276;SDS011;61501;43.316;5.372;2023-03-14T00:22:37;6.35;;;2.30;;
73276;SDS011;61501;43.316;5.372;2023-03-14T00:25:04;3.53;;;1.45;;
73276;SDS011;61501;43.316;5.372;2023-03-14T00:27:30;3.72;;;1.40;;
73276;SDS011;61501;43.316;5.372;2023-03-14T00:29:57;2.65;;;0.98;;
73276;SDS011;61501;43.316;5.372;2023-03-14T00:32:22;3.25;;;1.30;;
73276;SDS011;61501;43.316;5.372;2023-03-14T00:34:48;2.88;;;0.82;;
73276;SDS011;61501;43.316;5.372;2023-03-14T00:37:14;1.92;;;0.80;;
73276;SDS011;61501;43.316;5.372;2023-03-14T00:39:39;1.55;;;0.73;;
73276;SDS011;61501;43.316;5.372;2023-03-14T00:42:05;1.17;;;0.60;;
73276;SDS011;61501;43.316;5.372;2023-03-14T00:44:31;1.60;;;0.77;;
73276;SDS011;61501;43.316;5.372;2023-03-14T00:46:57;1.55;;;0.70;;
73276;SDS011;61501;43.316;5.372;2023-03-14T00:49:22;1.48;;;0.52;;
73276;SDS011;61501;43.316;5.372;2023-03-14T00:51:48;1.42;;;0.52;;
73276;SDS011;61501;43.316;5.372;2023-03-14T00:54:14;2.05;;;0.60;;
73276;SDS011;61501;43.316;5.372;2023-03-14T00:56:40;0.90;;;0.65;;
73276;SDS011;61501;43.316;5.372;2023-03-14T00:59:05;1.67;;;0.77;;
73276;SDS011;61501;43.316;5.372;2023-03-14T01:01:31;0.90;;;0.60;;
73276;SDS011;61501;43.316;5.372;2023-03-14T01:03:57;1.23;;;0.60;;
73276;SDS011;61501;43.316;5.372;2023-03-14T01:06:26;0.98;;;0.50;;
73276;SDS011;61501;43.316;5.372;2023-03-14T01:08:53;0.68;;;0.50;;
73276;SDS011;61501;43.316;5.372;2023-03-14T01:11:21;0.60;;;0.50;;
73276;SDS011;61501;43.316;5.372;2023-03-14T01:13:56;1.58;;;0.68;;
73276;SDS011;61501;43.316;5.372;2023-03-14T01:16:24;1.02;;;0.52;;
73276;SDS011;61501;43.316;5.372;2023-03-14T01:18:52;1.65;;;0.57;;
73276;SDS011;61501;43.316;5.372;2023-03-14T01:21:22;1.13;;;0.60;;
73276;SDS011;61501;43.316;5.372;2023-03-14T01:23:53;1.33;;;0.60;;
73276;SDS011;61501;43.316;5.372;2023-03-14T01:26:20;2.22;;;0.40;;
73276;SDS011;61501;43.316;5.372;2023-03-14T01:28:47;0.98;;;0.50;;
73276;SDS011;61501;43.316;5.372;2023-03-14T01:31:14;2.08;;;0.60;;
73276;SDS011;61501;43.316;5.372;2023-03-14T01:33:40;3.25;;;0.60;;
73276;SDS011;61501;43.316;5.372;2023-03-14T01:36:06;2.80;;;0.70;;
73276;SDS011;61501;43.316;5.372;2023-03-14T01:38:34;2.10;;;0.50;;
73276;SDS011;61501;43.316;5.372;2023-03-14T01:41:00;1.15;;;0.60;;
73276;SDS011;61501;43.316;5.372;2023-03-14T01:43:27;0.68;;;0.50;;
73276;SDS011;61501;43.316;5.372;2023-03-14T01:48:32;0.95;;;0.50;;
73276;SDS011;61501;43.316;5.372;2023-03-14T01:51:02;1.05;;;0.50;;
73276;SDS011;61501;43.316;5.372;2023-03-14T01:53:31;0.88;;;0.50;;
73276;SDS011;61501;43.316;5.372;2023-03-14T01:55:58;1.27;;;0.50;;
73276;SDS011;61501;43.316;5.372;2023-03-14T01:58:24;1.27;;;0.57;;
73276;SDS011;61501;43.316;5.372;2023-03-14T02:00:52;0.85;;;0.52;;
73276;SDS011;61501;43.316;5.372;2023-03-14T02:03:19;3.35;;;0.77;;
73276;SDS011;61501;43.316;5.372;2023-03-14T02:05:46;1.77;;;0.80;;
73276;SDS011;61501;43.316;5.372;2023-03-14T02:08:14;2.53;;;0.80;;
73276;SDS011;61501;43.316;5.372;2023-03-14T02:10:45;1.30;;;0.60;;
73276;SDS011;61501;43.316;5.372;2023-03-14T02:13:13;3.03;;;0.50;;
73276;SDS011;61501;43.316;5.372;2023-03-14T02:15:41;1.05;;;0.50;;
73276;SDS011;61501;43.316;5.372;2023-03-14T02:18:07;1.05;;;0.57;;
73276;SDS011;61501;43.316;5.372;2023-03-14T02:23:48;0.93;;;0.50;;
73276;SDS011;61501;43.316;5.372;2023-03-14T02:26:36;1.38;;;0.70;;
73276;SDS011;61501;43.316;5.372;2023-03-14T02:29:10;0.65;;;0.60;;
73276;SDS011;61501;43.316;5.372;2023-03-14T02:31:36;1.75;;;0.95;;
73276;SDS011;61501;43.316;5.372;2023-03-14T02:34:02;1.65;;;0.80;;
73276;SDS011;61501;43.316;5.372;2023-03-14T02:36:28;2.05;;;1.08;;
73276;SDS011;61501;43.316;5.372;2023-03-14T02:39:01;3.65;;;1.00;;
73276;SDS011;61501;43.316;5.372;2023-03-14T02:41:31;2.35;;;0.82;;
73276;SDS011;61501;43.316;5.372;2023-03-14T02:43:57;1.73;;;0.80;;
73276;SDS011;61501;43.316;5.372;2023-03-14T02:46:23;2.15;;;0.95;;
73276;SDS011;61501;43.316;5.372;2023-03-14T02:51:16;4.00;;;0.93;;
73276;SDS011;61501;43.316;5.372;2023-03-14T02:53:42;3.05;;;0.90;;
73276;SDS011;61501;43.316;5.372;2023-03-14T02:56:08;2.70;;;0.90;;
73276;SDS011;61501;43.316;5.372;2023-03-14T02:58:34;2.28;;;0.80;;
73276;SDS011;61501;43.316;5.372;2023-03-14T03:01:01;2.42;;;0.90;;
73276;SDS011;61501;43.316;5.372;2023-03-14T03:03:27;1.15;;;0.70;;
73276;SDS011;61501;43.316;5.372;2023-03-14T03:05:53;3.67;;;1.10;;
73276;SDS011;61501;43.316;5.372;2023-03-14T03:08:21;0.70;;;0.60;;
73276;SDS011;61501;43.316;5.372;2023-03-14T03:10:48;3.42;;;0.85;;
73276;SDS011;61501;43.316;5.372;2023-03-14T03:13:15;1.75;;;0.80;;
73276;SDS011;61501;43.316;5.372;2023-03-14T03:15:41;2.08;;;0.90;;
73276;SDS011;61501;43.316;5.372;2023-03-14T03:18:07;1.20;;;0.82;;
73276;SDS011;61501;43.316;5.372;2023-03-14T03:20:33;1.02;;;0.70;;
73276;SDS011;61501;43.316;5.372;2023-03-14T03:22:59;1.40;;;0.80;;
73276;SDS011;61501;43.316;5.372;2023-03-14T03:25:25;1.67;;;0.70;;
73276;SDS011;61501;43.316;5.372;2023-03-14T03:27:51;1.63;;;0.90;;
73276;SDS011;61501;43.316;5.372;2023-03-14T03:30:17;3.05;;;0.80;;
73276;SDS011;61501;43.316;5.372;2023-03-14T03:32:42;1.48;;;0.77;;
73276;SDS011;61501;43.316;5.372;2023-03-14T03:35:08;2.05;;;0.90;;
73276;SDS011;61501;43.316;5.372;2023-03-14T03:37:34;1.67;;;0.80;;
73276;SDS011;61501;43.316;5.372;2023-03-14T03:40:00;4.10;;;0.95;;
73276;SDS011;61501;43.316;5.372;2023-03-14T03:42:26;3.25;;;0.93;;
73276;SDS011;61501;43.316;5.372;2023-03-14T03:44:53;2.20;;;1.05;;
73276;SDS011;61501;43.316;5.372;2023-03-14T03:47:18;2.75;;;0.95;;
73276;SDS011;61501;43.316;5.372;2023-03-14T03:49:44;1.92;;;0.80;;
73276;SDS011;61501;43.316;5.372;2023-03-14T03:52:11;3.38;;;1.00;;
73276;SDS011;61501;43.316;5.372;2023-03-14T03:54:36;3.20;;;1.45;;
73276;SDS011;61501;43.316;5.372;2023-03-14T03:57:02;3.40;;;1.10;;
73276;SDS011;61501;43.316;5.372;2023-03-14T03:59:28;2.17;;;0.88;;
73276;SDS011;61501;43.316;5.372;2023-03-14T04:01:53;3.83;;;1.20;;
73276;SDS011;61501;43.316;5.372;2023-03-14T04:04:19;2.08;;;0.95;;
73276;SDS011;61501;43.316;5.372;2023-03-14T04:06:44;3.60;;;1.30;;
73276;SDS011;61501;43.316;5.372;2023-03-14T04:09:10;3.95;;;1.10;;
73276;SDS011;61501;43.316;5.372;2023-03-14T04:11:36;1.95;;;1.10;;
73276;SDS011;61501;43.316;5.372;2023-03-14T04:14:02;3.55;;;0.90;;
73276;SDS011;61501;43.316;5.372;2023-03-14T04:16:28;2.45;;;1.20;;
73276;SDS011;61501;43.316;5.372;2023-03-14T04:18:56;3.92;;;1.20;;
73276;SDS011;61501;43.316;5.372;2023-03-14T04:21:23;3.53;;;1.38;;
73276;SDS011;61501;43.316;5.372;2023-03-14T04:23:48;3.58;;;1.10;;
73276;SDS011;61501;43.316;5.372;2023-03-14T04:26:14;2.25;;;1.08;;
73276;SDS011;61501;43.316;5.372;2023-03-14T04:28:40;3.22;;;1.08;;
73276;SDS011;61501;43.316;5.372;2023-03-14T04:31:06;3.00;;;0.90;;
73276;SDS011;61501;43.316;5.372;2023-03-14T04:33:37;6.88;;;1.75;;
73276;SDS011;61501;43.316;5.372;2023-03-14T04:36:03;4.43;;;1.35;;
73276;SDS011;61501;43.316;5.372;2023-03-14T04:38:30;2.15;;;1.20;;
73276;SDS011;61501;43.316;5.372;2023-03-14T04:40:56;2.40;;;1.05;;
73276;SDS011;61501;43.316;5.372;2023-03-14T04:43:22;3.88;;;1.52;;
73276;SDS011;61501;43.316;5.372;2023-03-14T04:45:47;3.00;;;1.15;;
73276;SDS011;61501;43.316;5.372;2023-03-14T04:48:13;4.53;;;1.40;;
73276;SDS011;61501;43.316;5.372;2023-03-14T04:50:39;3.17;;;1.50;;
73276;SDS011;61501;43.316;5.372;2023-03-14T04:53:05;4.40;;;1.25;;
73276;SDS011;61501;43.316;5.372;2023-03-14T04:55:31;3.97;;;1.40;;
73276;SDS011;61501;43.316;5.372;2023-03-14T04:57:57;5.07;;;1.80;;
73276;SDS011;61501;43.316;5.372;2023-03-14T05:00:23;7.25;;;1.50;;
73276;SDS011;61501;43.316;5.372;2023-03-14T05:02:49;5.07;;;1.65;;
73276;SDS011;61501;43.316;5.372;2023-03-14T05:05:15;6.78;;;1.50;;
73276;SDS011;61501;43.316;5.372;2023-03-14T05:07:41;3.40;;;1.48;;
73276;SDS011;61501;43.316;5.372;2023-03-14T05:10:07;4.82;;;1.75;;
73276;SDS011;61501;43.316;5.372;2023-03-14T05:12:33;4.55;;;1.63;;
73276;SDS011;61501;43.316;5.372;2023-03-14T05:14:59;5.93;;;1.80;;
73276;SDS011;61501;43.316;5.372;2023-03-14T05:17:25;5.53;;;2.15;;
73276;SDS011;61501;43.316;5.372;2023-03-14T05:19:50;5.03;;;1.65;;
73276;SDS011;61501;43.316;5.372;2023-03-14T05:22:16;6.57;;;1.80;;
73276;SDS011;61501;43.316;5.372;2023-03-14T05:24:42;4.72;;;1.55;;
73276;SDS011;61501;43.316;5.372;2023-03-14T05:27:07;4.30;;;1.70;;
73276;SDS011;61501;43.316;5.372;2023-03-14T05:29:33;4.78;;;1.80;;
73276;SDS011;61501;43.316;5.372;2023-03-14T05:31:59;8.18;;;2.20;;
73276;SDS011;61501;43.316;5.372;2023-03-14T05:34:24;5.95;;;2.03;;
73276;SDS011;61501;43.316;5.372;2023-03-14T05:36:50;6.38;;;1.98;;
73276;SDS011;61501;43.316;5.372;2023-03-14T05:39:16;5.97;;;1.70;;
73276;SDS011;61501;43.316;5.372;2023-03-14T05:41:41;7.50;;;2.53;;
73276;SDS011;61501;43.316;5.372;2023-03-14T05:44:07;7.15;;;2.10;;
73276;SDS011;61501;43.316;5.372;2023-03-14T05:46:32;7.10;;;2.13;;
73276;SDS011;61501;43.316;5.372;2023-03-14T05:48:58;5.97;;;2.17;;
73276;SDS011;61501;43.316;5.372;2023-03-14T05:51:24;7.13;;;2.08;;
73276;SDS011;61501;43.316;5.372;2023-03-14T05:53:51;5.25;;;1.95;;
73276;SDS011;61501;43.316;5.372;2023-03-14T05:56:16;5.45;;;1.98;;
73276;SDS011;61501;43.316;5.372;2023-03-14T05:58:42;9.25;;;2.60;;
73276;SDS011;61501;43.316;5.372;2023-03-14T06:01:08;6.72;;;2.38;;
73276;SDS011;61501;43.316;5.372;2023-03-14T06:03:34;8.13;;;2.90;;
73276;SDS011;61501;43.316;5.372;2023-03-14T06:06:00;7.53;;;2.67;;
73276;SDS011;61501;43.316;5.372;2023-03-14T06:08:26;7.15;;;2.42;;
73276;SDS011;61501;43.316;5.372;2023-03-14T06:10:52;8.30;;;3.40;;
73276;SDS011;61501;43.316;5.372;2023-03-14T06:13:18;9.00;;;4.25;;
73276;SDS011;61501;43.316;5.372;2023-03-14T06:15:44;8.57;;;3.60;;
73276;SDS011;61501;43.316;5.372;2023-03-14T06:18:10;9.40;;;4.63;;
73276;SDS011;61501;43.316;5.372;2023-03-14T06:20:37;11.55;;;4.57;;
73276;SDS011;61501;43.316;5.372;2023-03-14T06:23:06;12.05;;;5.95;;
73276;SDS011;61501;43.316;5.372;2023-03-14T06:25:33;12.80;;;4.07;;
73276;SDS011;61501;43.316;5.372;2023-03-14T06:27:59;9.43;;;3.25;;
73276;SDS011;61501;43.316;5.372;2023-03-14T06:30:25;10.88;;;3.55;;
73276;SDS011;61501;43.316;5.372;2023-03-14T06:32:51;9.77;;;4.50;;
73276;SDS011;61501;43.316;5.372;2023-03-14T06:35:16;14.27;;;5.80;;
73276;SDS011;61501;43.316;5.372;2023-03-14T06:37:42;15.60;;;7.82;;
73276;SDS011;61501;43.316;5.372;2023-03-14T06:40:09;10.23;;;3.25;;
73276;SDS011;61501;43.316;5.372;2023-03-14T06:42:35;5.10;;;2.60;;
73276;SDS011;61501;43.316;5.372;2023-03-14T06:45:01;8.35;;;3.08;;
73276;SDS011;61501;43.316;5.372;2023-03-14T06:47:28;5.95;;;2.50;;
73276;SDS011;61501;43.316;5.372;2023-03-14T06:49:54;5.93;;;2.15;;
73276;SDS011;61501;43.316;5.372;2023-03-14T06:52:19;7.38;;;2.50;;
73276;SDS011;61501;43.316;5.372;2023-03-14T06:54:45;7.43;;;2.47;;
73276;SDS011;61501;43.316;5.372;2023-03-14T06:57:11;9.23;;;2.50;;
73276;SDS011;61501;43.316;5.372;2023-03-14T06:59:36;8.38;;;2.20;;
73276;SDS011;61501;43.316;5.372;2023-03-14T07:02:02;7.57;;;2.20;;
73276;SDS011;61501;43.316;5.372;2023-03-14T07:04:27;6.25;;;2.22;;
73276;SDS011;61501;43.316;5.372;2023-03-14T07:06:53;8.20;;;2.38;;
73276;SDS011;61501;43.316;5.372;2023-03-14T07:09:19;14.40;;;3.13;;
73276;SDS011;61501;43.316;5.372;2023-03-14T07:11:45;13.30;;;3.17;;
73276;SDS011;61501;43.316;5.372;2023-03-14T07:14:10;7.25;;;2.63;;
73276;SDS011;61501;43.316;5.372;2023-03-14T07:16:36;10.43;;;3.05;;
73276;SDS011;61501;43.316;5.372;2023-03-14T07:19:02;12.07;;;3.40;;
73276;SDS011;61501;43.316;5.372;2023-03-14T07:21:28;17.70;;;3.67;;
73276;SDS011;61501;43.316;5.372;2023-03-14T07:23:54;13.27;;;3.35;;
73276;SDS011;61501;43.316;5.372;2023-03-14T07:26:19;11.48;;;3.40;;
73276;SDS011;61501;43.316;5.372;2023-03-14T07:28:45;13.88;;;3.40;;
73276;SDS011;61501;43.316;5.372;2023-03-14T07:31:11;11.60;;;3.45;;
73276;SDS011;61501;43.316;5.372;2023-03-14T07:33:38;11.07;;;3.67;;
73276;SDS011;61501;43.316;5.372;2023-03-14T07:36:04;15.52;;;4.22;;
73276;SDS011;61501;43.316;5.372;2023-03-14T07:38:30;15.68;;;4.47;;
73276;SDS011;61501;43.316;5.372;2023-03-14T07:41:02;9.55;;;2.83;;
73276;SDS011;61501;43.316;5.372;2023-03-14T07:43:30;14.35;;;3.42;;
73276;SDS011;61501;43.316;5.372;2023-03-14T07:45:56;10.13;;;3.15;;
73276;SDS011;61501;43.316;5.372;2023-03-14T07:48:24;12.88;;;3.67;;
73276;SDS011;61501;43.316;5.372;2023-03-14T07:53:31;10.88;;;3.20;;
73276;SDS011;61501;43.316;5.372;2023-03-14T07:55:56;13.23;;;3.53;;
73276;SDS011;61501;43.316;5.372;2023-03-14T07:58:22;10.73;;;3.17;;
73276;SDS011;61501;43.316;5.372;2023-03-14T08:00:48;13.20;;;3.55;;
73276;SDS011;61501;43.316;5.372;2023-03-14T08:03:14;12.15;;;3.08;;
73276;SDS011;61501;43.316;5.372;2023-03-14T08:05:40;12.38;;;3.47;;
73276;SDS011;61501;43.316;5.372;2023-03-14T08:08:07;10.80;;;3.10;;
73276;SDS011;61501;43.316;5.372;2023-03-14T08:10:33;9.45;;;3.05;;
73276;SDS011;61501;43.316;5.372;2023-03-14T08:12:59;11.80;;;3.75;;
73276;SDS011;61501;43.316;5.372;2023-03-14T08:15:25;12.32;;;2.70;;
73276;SDS011;61501;43.316;5.372;2023-03-14T08:17:53;10.45;;;3.05;;
73276;SDS011;61501;43.316;5.372;2023-03-14T08:20:19;11.23;;;2.97;;
73276;SDS011;61501;43.316;5.372;2023-03-14T08:22:46;9.07;;;2.58;;
73276;SDS011;61501;43.316;5.372;2023-03-14T08:25:12;8.82;;;2.50;;
73276;SDS011;61501;43.316;5.372;2023-03-14T08:27:37;8.10;;;2.60;;
73276;SDS011;61501;43.316;5.372;2023-03-14T08:30:07;11.55;;;3.53;;
73276;SDS011;61501;43.316;5.372;2023-03-14T08:32:38;22.98;;;15.88;;
73276;SDS011;61501;43.316;5.372;2023-03-14T08:35:04;21.25;;;12.85;;
73276;SDS011;61501;43.316;5.372;2023-03-14T08:37:31;17.75;;;7.22;;
73276;SDS011;61501;43.316;5.372;2023-03-14T08:39:57;11.93;;;3.92;;
73276;SDS011;61501;43.316;5.372;2023-03-14T08:42:23;12.15;;;3.63;;
73276;SDS011;61501;43.316;5.372;2023-03-14T08:44:50;15.35;;;4.45;;
73276;SDS011;61501;43.316;5.372;2023-03-14T08:47:16;10.02;;;4.63;;
73276;SDS011;61501;43.316;5.372;2023-03-14T08:49:42;16.23;;;7.88;;
73276;SDS011;61501;43.316;5.372;2023-03-14T08:52:07;23.45;;;6.55;;
73276;SDS011;61501;43.316;5.372;2023-03-14T08:54:33;15.20;;;5.32;;
73276;SDS011;61501;43.316;5.372;2023-03-14T08:56:59;20.70;;;5.07;;
73276;SDS011;61501;43.316;5.372;2023-03-14T08:59:25;15.07;;;4.07;;
73276;SDS011;61501;43.316;5.372;2023-03-14T09:01:50;10.02;;;3.35;;
73276;SDS011;61501;43.316;5.372;2023-03-14T09:04:16;10.23;;;3.90;;
73276;SDS011;61501;43.316;5.372;2023-03-14T09:06:42;15.13;;;3.72;;
73276;SDS011;61501;43.316;5.372;2023-03-14T09:09:08;10.85;;;3.78;;
73276;SDS011;61501;43.316;5.372;2023-03-14T09:11:33;10.85;;;3.40;;
73276;SDS011;61501;43.316;5.372;2023-03-14T09:13:59;9.52;;;2.88;;
73276;SDS011;61501;43.316;5.372;2023-03-14T09:16:25;15.50;;;4.30;;
73276;SDS011;61501;43.316;5.372;2023-03-14T09:18:51;10.10;;;2.60;;
73276;SDS011;61501;43.316;5.372;2023-03-14T09:21:19;12.50;;;3.80;;
73276;SDS011;61501;43.316;5.372;2023-03-14T09:23:46;15.63;;;3.58;;
73276;SDS011;61501;43.316;5.372;2023-03-14T09:26:11;15.07;;;3.58;;
73276;SDS011;61501;43.316;5.372;2023-03-14T09:28:37;25.20;;;4.88;;
73276;SDS011;61501;43.316;5.372;2023-03-14T09:31:06;11.48;;;3.38;;
73276;SDS011;61501;43.316;5.372;2023-03-14T09:33:33;10.77;;;2.55;;
73276;SDS011;61501;43.316;5.372;2023-03-14T09:35:59;14.88;;;3.00;;
73276;SDS011;61501;43.316;5.372;2023-03-14T09:38:25;13.63;;;2.55;;
73276;SDS011;61501;43.316;5.372;2023-03-14T09:40:51;13.05;;;3.15;;
73276;SDS011;61501;43.316;5.372;2023-03-14T09:43:18;13.80;;;2.88;;
73276;SDS011;61501;43.316;5.372;2023-03-14T09:45:46;10.18;;;2.50;;
73276;SDS011;61501;43.316;5.372;2023-03-14T09:48:19;12.50;;;2.83;;
73276;SDS011;61501;43.316;5.372;2023-03-14T09:50:51;8.65;;;2.35;;
73276;SDS011;61501;43.316;5.372;2023-03-14T09:53:39;10.52;;;2.33;;
73276;SDS011;61501;43.316;5.372;2023-03-14T09:56:18;7.80;;;2.25;;
73276;SDS011;61501;43.316;5.372;2023-03-14T09:58:54;8.00;;;2.05;;
73276;SDS011;61501;43.316;5.372;2023-03-14T10:01:24;8.18;;;1.67;;
73276;SDS011;61501;43.316;5.372;2023-03-14T10:03:53;6.88;;;2.05;;
73276;SDS011;61501;43.316;5.372;2023-03-14T10:06:25;7.32;;;1.85;;
73276;SDS011;61501;43.316;5.372;2023-03-14T10:08:53;13.82;;;2.83;;
73276;SDS011;61501;43.316;5.372;2023-03-14T10:11:20;7.63;;;1.90;;
73276;SDS011;61501;43.316;5.372;2023-03-14T10:14:03;8.52;;;2.42;;
73276;SDS011;61501;43.316;5.372;2023-03-14T10:16:34;6.68;;;2.63;;
73276;SDS011;61501;43.316;5.372;2023-03-14T10:19:15;9.40;;;2.75;;
73276;SDS011;61501;43.316;5.372;2023-03-14T10:21:52;12.77;;;2.78;;
73276;SDS011;61501;43.316;5.372;2023-03-14T10:24:20;13.25;;;2.38;;
73276;SDS011;61501;43.316;5.372;2023-03-14T10:29:33;7.32;;;2.40;;
73276;SDS011;61501;43.316;5.372;2023-03-14T10:32:01;9.70;;;2.53;;
73276;SDS011;61501;43.316;5.372;2023-03-14T10:34:38;8.48;;;2.60;;
73276;SDS011;61501;43.316;5.372;2023-03-14T10:37:14;11.32;;;2.58;;
73276;SDS011;61501;43.316;5.372;2023-03-14T10:39:49;15.68;;;3.42;;
73276;SDS011;61501;43.316;5.372;2023-03-14T10:42:21;9.75;;;2.97;;
73276;SDS011;61501;43.316;5.372;2023-03-14T10:44:56;14.23;;;3.45;;
73276;SDS011;61501;43.316;5.372;2023-03-14T10:47:25;10.15;;;2.40;;
73276;SDS011;61501;43.316;5.372;2023-03-14T10:49:53;11.02;;;3.00;;
73276;SDS011;61501;43.316;5.372;2023-03-14T10:52:26;9.55;;;2.75;;
73276;SDS011;61501;43.316;5.372;2023-03-14T10:55:03;10.45;;;2.83;;
73276;SDS011;61501;43.316;5.372;2023-03-14T10:57:39;7.97;;;2.60;;
73276;SDS011;61501;43.316;5.372;2023-03-14T11:02:48;7.72;;;2.53;;
73276;SDS011;61501;43.316;5.372;2023-03-14T11:08:09;10.32;;;2.15;;
73276;SDS011;61501;43.316;5.372;2023-03-14T11:10:44;4.70;;;1.77;;
73276;SDS011;61501;43.316;5.372;2023-03-14T11:13:18;7.15;;;2.22;;
73276;SDS011;61501;43.316;5.372;2023-03-14T11:29:21;5.25;;;2.00;;
73276;SDS011;61501;43.316;5.372;2023-03-14T11:32:07;8.50;;;3.30;;
73276;SDS011;61501;43.316;5.372;2023-03-14T11:34:53;11.93;;;3.03;;
73276;SDS011;61501;43.316;5.372;2023-03-14T11:37:28;9.25;;;2.75;;
73276;SDS011;61501;43.316;5.372;2023-03-14T11:40:14;8.68;;;2.90;;
73276;SDS011;61501;43.316;5.372;2023-03-14T11:42:44;7.95;;;3.70;;
73276;SDS011;61501;43.316;5.372;2023-03-14T11:45:34;8.48;;;2.40;;
73276;SDS011;61501;43.316;5.372;2023-03-14T11:50:53;6.18;;;2.42;;
73276;SDS011;61501;43.316;5.372;2023-03-14T11:53:25;7.80;;;2.22;;
73276;SDS011;61501;43.316;5.372;2023-03-14T11:59:09;6.72;;;2.63;;
73276;SDS011;61501;43.316;5.372;2023-03-14T12:01:52;7.90;;;2.55;;
73276;SDS011;61501;43.316;5.372;2023-03-14T12:07:13;4.45;;;1.40;;
73276;SDS011;61501;43.316;5.372;2023-03-14T12:09:45;6.55;;;2.00;;
73276;SDS011;61501;43.316;5.372;2023-03-14T12:12:14;5.75;;;1.45;;
73276;SDS011;61501;43.316;5.372;2023-03-14T12:14:45;5.25;;;1.40;;
73276;SDS011;61501;43.316;5.372;2023-03-14T12:19:59;5.53;;;1.30;;
73276;SDS011;61501;43.316;5.372;2023-03-14T12:22:33;3.80;;;1.33;;
73276;SDS011;61501;43.316;5.372;2023-03-14T12:35:45;5.47;;;1.40;;
73276;SDS011;61501;43.316;5.372;2023-03-14T12:39:00;8.93;;;1.65;;
73276;SDS011;61501;43.316;5.372;2023-03-14T12:43:47;13.27;;;2.38;;
73276;SDS011;61501;43.316;5.372;2023-03-14T12:49:24;11.50;;;2.35;;
73276;SDS011;61501;43.316;5.372;2023-03-14T12:51:40;7.15;;;1.75;;
73276;SDS011;61501;43.316;5.372;2023-03-14T12:54:29;5.38;;;1.40;;
73276;SDS011;61501;43.316;5.372;2023-03-14T13:02:37;6.05;;;2.92;;
73276;SDS011;61501;43.316;5.372;2023-03-14T13:05:13;6.90;;;5.55;;
73276;SDS011;61501;43.316;5.372;2023-03-14T13:12:57;8.63;;;1.83;;
73276;SDS011;61501;43.316;5.372;2023-03-14T13:18:11;5.72;;;1.73;;
73276;SDS011;61501;43.316;5.372;2023-03-14T13:20:51;4.35;;;1.40;;
73276;SDS011;61501;43.316;5.372;2023-03-14T13:23:23;2.75;;;1.20;;
73276;SDS011;61501;43.316;5.372;2023-03-14T13:25:51;4.50;;;1.85;;
73276;SDS011;61501;43.316;5.372;2023-03-14T13:28:17;9.23;;;1.50;;
73276;SDS011;61501;43.316;5.372;2023-03-14T13:30:44;10.15;;;2.05;;
73276;SDS011;61501;43.316;5.372;2023-03-14T13:33:18;10.20;;;1.63;;
73276;SDS011;61501;43.316;5.372;2023-03-14T13:35:46;9.95;;;1.67;;
73276;SDS011;61501;43.316;5.372;2023-03-14T13:38:15;7.70;;;1.27;;
73276;SDS011;61501;43.316;5.372;2023-03-14T13:40:43;6.40;;;2.08;;
73276;SDS011;61501;43.316;5.372;2023-03-14T13:43:11;8.75;;;1.40;;
73276;SDS011;61501;43.316;5.372;2023-03-14T13:48:43;6.72;;;2.30;;
73276;SDS011;61501;43.316;5.372;2023-03-14T13:51:13;7.68;;;1.50;;
73276;SDS011;61501;43.316;5.372;2023-03-14T13:53:51;5.13;;;1.92;;
73276;SDS011;61501;43.316;5.372;2023-03-14T13:56:22;5.75;;;1.48;;
73276;SDS011;61501;43.316;5.372;2023-03-14T13:58:49;11.43;;;1.77;;
73276;SDS011;61501;43.316;5.372;2023-03-14T14:01:25;3.38;;;1.13;;
73276;SDS011;61501;43.316;5.372;2023-03-14T14:03:57;5.32;;;1.30;;
73276;SDS011;61501;43.316;5.372;2023-03-14T14:08:58;6.30;;;1.20;;
73276;SDS011;61501;43.316;5.372;2023-03-14T14:14:06;5.00;;;1.10;;
73276;SDS011;61501;43.316;5.372;2023-03-14T14:16:40;15.45;;;1.50;;
73276;SDS011;61501;43.316;5.372;2023-03-14T14:19:07;6.10;;;1.42;;
73276;SDS011;61501;43.316;5.372;2023-03-14T14:21:33;8.50;;;1.42;;
73276;SDS011;61501;43.316;5.372;2023-03-14T14:23:59;3.67;;;1.05;;
73276;SDS011;61501;43.316;5.372;2023-03-14T14:26:25;7.30;;;1.67;;
73276;SDS011;61501;43.316;5.372;2023-03-14T14:29:02;2.58;;;0.80;;
73276;SDS011;61501;43.316;5.372;2023-03-14T14:31:29;2.47;;;0.90;;
73276;SDS011;61501;43.316;5.372;2023-03-14T14:33:59;4.55;;;1.10;;
73276;SDS011;61501;43.316;5.372;2023-03-14T14:36:36;6.55;;;1.30;;
73276;SDS011;61501;43.316;5.372;2023-03-14T14:39:05;4.05;;;1.10;;
73276;SDS011;61501;43.316;5.372;2023-03-14T14:41:41;3.92;;;1.23;;
73276;SDS011;61501;43.316;5.372;2023-03-14T14:44:10;5.97;;;1.10;;
73276;SDS011;61501;43.316;5.372;2023-03-14T14:46:38;3.65;;;0.85;;
73276;SDS011;61501;43.316;5.372;2023-03-14T14:49:10;2.67;;;0.85;;
73276;SDS011;61501;43.316;5.372;2023-03-14T14:51:43;3.83;;;1.00;;
73276;SDS011;61501;43.316;5.372;2023-03-14T14:54:13;3.67;;;1.30;;
73276;SDS011;61501;43.316;5.372;2023-03-14T14:56:48;3.30;;;1.30;;
73276;SDS011;61501;43.316;5.372;2023-03-14T14:59:20;3.92;;;1.17;;
73276;SDS011;61501;43.316;5.372;2023-03-14T15:01:49;3.67;;;1.00;;
73276;SDS011;61501;43.316;5.372;2023-03-14T15:04:19;9.75;;;1.23;;
73276;SDS011;61501;43.316;5.372;2023-03-14T15:06:46;4.28;;;1.48;;
73276;SDS011;61501;43.316;5.372;2023-03-14T15:09:14;4.45;;;1.33;;
73276;SDS011;61501;43.316;5.372;2023-03-14T15:11:42;4.82;;;1.60;;
73276;SDS011;61501;43.316;5.372;2023-03-14T15:14:08;3.00;;;1.30;;
73276;SDS011;61501;43.316;5.372;2023-03-14T15:16:33;2.25;;;1.00;;
73276;SDS011;61501;43.316;5.372;2023-03-14T15:19:01;8.75;;;1.45;;
73276;SDS011;61501;43.316;5.372;2023-03-14T15:21:31;10.93;;;1.73;;
73276;SDS011;61501;43.316;5.372;2023-03-14T15:23:57;4.55;;;1.10;;
73276;SDS011;61501;43.316;5.372;2023-03-14T15:26:26;7.50;;;1.30;;
73276;SDS011;61501;43.316;5.372;2023-03-14T15:28:52;6.15;;;1.73;;
73276;SDS011;61501;43.316;5.372;2023-03-14T15:31:19;4.70;;;1.27;;
73276;SDS011;61501;43.316;5.372;2023-03-14T15:33:46;16.88;;;9.23;;
73276;SDS011;61501;43.316;5.372;2023-03-14T15:38:41;6.03;;;1.20;;
73276;SDS011;61501;43.316;5.372;2023-03-14T15:41:07;4.53;;;1.10;;
73276;SDS011;61501;43.316;5.372;2023-03-14T15:43:34;3.40;;;1.00;;
73276;SDS011;61501;43.316;5.372;2023-03-14T15:45:59;4.55;;;1.05;;
73276;SDS011;61501;43.316;5.372;2023-03-14T15:48:25;4.68;;;1.15;;
73276;SDS011;61501;43.316;5.372;2023-03-14T15:50:50;7.15;;;1.45;;
73276;SDS011;61501;43.316;5.372;2023-03-14T15:53:16;5.95;;;1.50;;
73276;SDS011;61501;43.316;5.372;2023-03-14T15:55:42;3.50;;;1.38;;
73276;SDS011;61501;43.316;5.372;2023-03-14T15:58:10;7.63;;;1.23;;
73276;SDS011;61501;43.316;5.372;2023-03-14T16:00:41;5.55;;;1.25;;
73276;SDS011;61501;43.316;5.372;2023-03-14T16:03:07;6.32;;;1.10;;
73276;SDS011;61501;43.316;5.372;2023-03-14T16:05:33;7.15;;;1.05;;
73276;SDS011;61501;43.316;5.372;2023-03-14T16:07:58;3.95;;;1.10;;
73276;SDS011;61501;43.316;5.372;2023-03-14T16:10:26;3.63;;;1.10;;
73276;SDS011;61501;43.316;5.372;2023-03-14T16:12:51;5.68;;;1.00;;